^^
Monroeville - KPAMUNIC2 Historical Data
 
Daily Summary for January 26, 2022 Units:  English    Metric   Both
Daily Weekly Monthly Yearly
  Current: High: Low: Average:
Temperature: 16.6 °F 20.9 °F 12.7 °F 17.2 °F
Dew Point: 5 °F 11.6 °F 4.5 °F 8.6 °F
Humidity: 59.5% 82% 51.2% 69%
Wind Speed: 0mph 3.6mph 0mph 1.2mph
Wind Gust: 1.6mph 11.4mph - -
WindCalm - - South
Pressure: 30.37 in 30.38 in 30.20 in -
Precipitation: 0.00 in      
 
 
Tabular Data for January 26, 2022
Time Temperature Dew Point Pressure Wind Wind Speed Wind Gust Humidity Rainfall Rate (Hourly) solar
00:04 15.4 °F 9.4 °F 30.21 in East 0.2 mph 1.3 mph 76.6% 0.00 in 0 W/m2
00:09 15.4 °F 9.2 °F 30.21 in Calm   1.3 mph 75.8% 0.00 in 0 W/m2
00:14 15.4 °F 9.2 °F 30.20 in NNE 0.1 mph 1.3 mph 75.7% 0.00 in 0 W/m2
00:19 15.1 °F 8.8 °F 30.20 in East 0.2 mph 1.3 mph 75.5% 0.00 in 0 W/m2
00:24 15 °F 8.7 °F 30.21 in Calm   1.3 mph 75.5% 0.00 in 0 W/m2
00:29 15.2 °F 8.6 °F 30.21 in SE 0.1 mph 1.1 mph 74.6% 0.00 in 0 W/m2
00:34 15.2 °F 8.3 °F 30.21 in ENE 0.2 mph 1.1 mph 74% 0.00 in 0 W/m2
00:39 14.5 °F 8.2 °F 30.20 in East 0.2 mph 1.6 mph 75.5% 0.00 in 0 W/m2
00:44 14.5 °F 8.3 °F 30.20 in ENE 0.2 mph 1.6 mph 75.6% 0.00 in 0 W/m2
00:49 14.6 °F 8.2 °F 30.21 in ESE 0.1 mph 1.1 mph 75.4% 0.00 in 0 W/m2
00:54 14.1 °F 8 °F 30.21 in Calm   1.1 mph 76.1% 0.00 in 0 W/m2
00:59 13.8 °F 7.9 °F 30.21 in NE 0.1 mph 1.6 mph 77% 0.00 in 0 W/m2
01:04 13.8 °F 7.9 °F 30.21 in ENE 0.2 mph 1.6 mph 77% 0.00 in 0 W/m2
01:09 13.5 °F 7.9 °F 30.21 in NE 0.1 mph 1.8 mph 77.7% 0.00 in 0 W/m2
01:14 13.5 °F 7.9 °F 30.20 in East 0.2 mph 1.8 mph 77.9% 0.00 in 0 W/m2
01:19 13.6 °F 7.9 °F 30.20 in ENE 0.2 mph 1.3 mph 77.6% 0.00 in 0 W/m2
01:24 13.4 °F 7.5 °F 30.20 in SSE 0.1 mph 1.6 mph 77.3% 0.00 in 0 W/m2
01:29 13.4 °F 7.4 °F 30.20 in NE 0.4 mph 1.6 mph 77% 0.00 in 0 W/m2
01:34 13.8 °F 7.9 °F 30.21 in Calm   1.6 mph 77.1% 0.00 in 0 W/m2
01:39 13.7 °F 7.6 °F 30.21 in East 0.2 mph 1.3 mph 76% 0.00 in 0 W/m2
01:44 13.2 °F 7.3 °F 30.21 in East 0.7 mph 1.6 mph 76.6% 0.00 in 0 W/m2
01:49 13.1 °F 7.3 °F 30.21 in East 0.1 mph 1.6 mph 77% 0.00 in 0 W/m2
01:54 12.8 °F 7.2 °F 30.21 in East 0.1 mph 1.3 mph 77.8% 0.00 in 0 W/m2
01:59 12.7 °F 7.2 °F 30.21 in NNE 0.1 mph 1.3 mph 78% 0.00 in 0 W/m2
02:04 12.9 °F 7.3 °F 30.21 in East 0.1 mph 1.3 mph 77.9% 0.00 in 0 W/m2
02:09 12.8 °F 7.3 °F 30.21 in NE 0.5 mph 1.3 mph 78% 0.00 in 0 W/m2
02:14 12.7 °F 7.1 °F 30.22 in East 0.1 mph 1.8 mph 78% 0.00 in 0 W/m2
02:19 13.6 °F 7.8 °F 30.22 in NE 0.1 mph 1.8 mph 77.4% 0.00 in 0 W/m2
02:24 13.8 °F 7.9 °F 30.22 in Calm   1.1 mph 77% 0.00 in 0 W/m2
02:29 14.2 °F 8.2 °F 30.22 in East 0.1 mph 1.8 mph 77% 0.00 in 0 W/m2
02:34 14.8 °F 8.8 °F 30.22 in Calm   1.6 mph 76.3% 0.00 in 0 W/m2
02:39 15.1 °F 9 °F 30.22 in ENE 0.1 mph 1.6 mph 76% 0.00 in 0 W/m2
02:44 15.1 °F 8.8 °F 30.22 in East 0.4 mph 1.6 mph 75.6% 0.00 in 0 W/m2
02:49 15.3 °F 9 °F 30.23 in East 0.1 mph 1.3 mph 75.4% 0.00 in 0 W/m2
02:54 15.6 °F 9 °F 30.23 in Calm   1.1 mph 74.7% 0.00 in 0 W/m2
02:59 15.4 °F 9 °F 30.23 in Calm     75.2% 0.00 in 0 W/m2
03:04 14.2 °F 8.7 °F 30.23 in SSW 0.2 mph 2 mph 78% 0.00 in 0 W/m2
03:09 14.2 °F 9 °F 30.23 in SSE 0.5 mph 1.6 mph 79.7% 0.00 in 0 W/m2
03:14 14.9 °F 9.6 °F 30.23 in NE 0.4 mph 1.8 mph 79.2% 0.00 in 0 W/m2
03:19 14.6 °F 9.2 °F 30.23 in ESE 0.3 mph 2 mph 78.6% 0.00 in 0 W/m2
03:24 14.8 °F 9.6 °F 30.23 in ENE 0.3 mph 1.6 mph 79.5% 0.00 in 0 W/m2
03:29 15 °F 9.4 °F 30.23 in East 0.1 mph 1.3 mph 78.1% 0.00 in 0 W/m2
03:34 15.4 °F 9.5 °F 30.23 in NE 0.4 mph 1.8 mph 77.1% 0.00 in 0 W/m2
03:39 15.6 °F 9.7 °F 30.23 in SSE 0.1 mph 1.6 mph 77% 0.00 in 0 W/m2
03:44 16.3 °F 9.9 °F 30.23 in SE 0.1 mph 1.6 mph 75.2% 0.00 in 0 W/m2
03:49 15.7 °F 9.4 °F 30.23 in SE 0.2 mph 1.6 mph 76% 0.00 in 0 W/m2
03:54 16 °F 9.7 °F 30.23 in ESE 0.4 mph 1.8 mph 76% 0.00 in 0 W/m2
03:59 15.4 °F 9.4 °F 30.23 in East 0.6 mph 1.8 mph 76.7% 0.00 in 0 W/m2
04:04 15.3 °F 9.7 °F 30.23 in Calm   1.3 mph 77.9% 0.00 in 0 W/m2
04:09 16 °F 10 °F 30.23 in Calm   1.3 mph 76.7% 0.00 in 0 W/m2
04:14 16.4 °F 10 °F 30.24 in Calm     75.4% 0.00 in 0 W/m2
04:19 16.2 °F 9.8 °F 30.24 in Calm   1.1 mph 75.7% 0.00 in 0 W/m2
04:24 16.6 °F 10 °F 30.24 in ESE 0.1 mph 1.1 mph 74.5% 0.00 in 0 W/m2
04:29 16.7 °F 9.9 °F 30.24 in SE 0.1 mph 1.3 mph 74% 0.00 in 0 W/m2
04:34 16.9 °F 9.8 °F 30.24 in Calm   1.1 mph 73.3% 0.00 in 0 W/m2
04:39 16.6 °F 9.9 °F 30.24 in Calm     74.3% 0.00 in 0 W/m2
04:44 16.7 °F 10 °F 30.25 in Calm     74.5% 0.00 in 0 W/m2
04:49 16.5 °F 10 °F 30.24 in Calm   1.1 mph 75.2% 0.00 in 0 W/m2
04:54 15.8 °F 9.8 °F 30.24 in Calm   1.1 mph 76.8% 0.00 in 0 W/m2
04:59 16.7 °F 10.4 °F 30.25 in Calm     75.5% 0.00 in 0 W/m2
05:04 16.6 °F 10.2 °F 30.25 in Calm     75.4% 0.00 in 0 W/m2
05:09 16.4 °F 11.1 °F 30.26 in NNE 0.1 mph 1.6 mph 79.3% 0.00 in 0 W/m2
05:14 16 °F 11 °F 30.26 in NE 0.1 mph 1.8 mph 80.2% 0.00 in 0 W/m2
05:19 16.3 °F 11.1 °F 30.25 in Calm   1.1 mph 79.5% 0.00 in 0 W/m2
05:24 16.2 °F 11 °F 30.25 in North 0.1 mph 1.3 mph 79.9% 0.00 in 0 W/m2
05:29 15.9 °F 11.3 °F 30.25 in NE 0.3 mph 1.8 mph 82% 0.00 in 0 W/m2
05:34 16.2 °F 11.1 °F 30.26 in Calm   1.3 mph 80.1% 0.00 in 0 W/m2
05:39 16.3 °F 10.8 °F 30.26 in Calm   1.3 mph 78.4% 0.00 in 0 W/m2
05:44 16 °F 10.4 °F 30.26 in Calm   1.3 mph 78.2% 0.00 in 0 W/m2
05:49 16.3 °F 10.8 °F 30.26 in Calm   1.1 mph 78% 0.00 in 0 W/m2
05:54 16.7 °F 10.8 °F 30.26 in ESE 0.1 mph 1.3 mph 77.1% 0.00 in 0 W/m2
05:59 16.5 °F 10.6 °F 30.26 in East 0.2 mph 1.3 mph 77% 0.00 in 0 W/m2
06:04 16.6 °F 10.7 °F 30.27 in SE 0.2 mph 1.3 mph 77% 0.00 in 0 W/m2
06:09 16.9 °F 10.7 °F 30.27 in ESE 0.3 mph 1.3 mph 76.2% 0.00 in 0 W/m2
06:14 16.6 °F 10.6 °F 30.27 in NNE 0.2 mph 1.3 mph 76.9% 0.00 in 0 W/m2
06:19 16.7 °F 10.8 °F 30.28 in SE 0.1 mph 1.8 mph 77% 0.00 in 0 W/m2
06:24 17.4 °F 11.1 °F 30.28 in East 0.2 mph 1.6 mph 76% 0.00 in 0 W/m2
06:29 16.8 °F 10.8 °F 30.28 in SSW 0.2 mph 2.9 mph 77.1% 0.00 in 0 W/m2
06:34 16.8 °F 11.1 °F 30.28 in East 0.2 mph 1.3 mph 77.8% 0.00 in 0 W/m2
06:39 17.1 °F 11.3 °F 30.29 in ESE 0.5 mph 2 mph 77.5% 0.00 in 0 W/m2
06:44 17 °F 11.1 °F 30.29 in SSW 0.7 mph 2.7 mph 77.2% 0.00 in 0 W/m2
06:49 16.4 °F 10.9 °F 30.29 in ESE 0.8 mph 3.8 mph 78.3% 0.00 in 0 W/m2
06:54 17 °F 11.3 °F 30.30 in SE 0.1 mph 1.8 mph 77.9% 0.00 in 0 W/m2
06:59 17 °F 11.2 °F 30.30 in SE 0.5 mph 2.2 mph 77.5% 0.00 in 0 W/m2
07:04 16.5 °F 11 °F 30.30 in WNW 0.4 mph 2.5 mph 78.4% 0.00 in 0 W/m2
07:09 17.2 °F 11.4 °F 30.30 in SE 0.2 mph 2 mph 77.5% 0.00 in 0 W/m2
07:14 17.2 °F 11.4 °F 30.30 in West 0.5 mph 2 mph 77.3% 0.00 in 0 W/m2
07:19 17 °F 11.4 °F 30.30 in North 0.3 mph 1.6 mph 78% 0.00 in 0 W/m2
07:24 17.3 °F 11.4 °F 30.31 in Calm   1.3 mph 77.4% 0.00 in 0 W/m2
07:29 17.3 °F 11.3 °F 30.30 in SE 0.8 mph 2.9 mph 76.9% 0.00 in 0 W/m2
07:34 16.6 °F 11 °F 30.31 in SSW 0.7 mph 3.1 mph 78.2% 0.00 in 0 W/m2
07:39 16.8 °F 11.4 °F 30.31 in ENE 0.1 mph 2.7 mph 79% 0.00 in 0 W/m2
07:44 17.3 °F 11.6 °F 30.31 in SSE 0.1 mph 1.8 mph 78.1% 0.00 in 0 W/m2
07:49 17.1 °F 11.3 °F 30.31 in NW 0.5 mph 3.6 mph 77.6% 0.00 in 0 W/m2
07:54 16.1 °F 10.8 °F 30.31 in SW 1 mph 3.6 mph 79.5% 0.00 in 0 W/m2
07:59 16.2 °F 11.1 °F 30.31 in SW 0.3 mph 2.5 mph 79.8% 0.00 in 0 W/m2
08:04 16.3 °F 10.9 °F 30.31 in SW 0.9 mph 3.8 mph 79.1% 0.00 in 2 W/m2
08:09 16.2 °F 11 °F 30.31 in WSW 0.3 mph 3.6 mph 79.6% 0.00 in 4 W/m2
08:14 16.6 °F 11.1 °F 30.31 in South 0.9 mph 3.6 mph 78.8% 0.00 in 5 W/m2
08:19 16.5 °F 11 °F 30.32 in WSW 0.7 mph 2.9 mph 78.9% 0.00 in 5 W/m2
08:24 16.2 °F 10.9 °F 30.32 in SSW 1.3 mph 4 mph 79.4% 0.00 in 6 W/m2
08:29 16.3 °F 10.9 °F 30.33 in SW 1.5 mph 4 mph 79% 0.00 in 7 W/m2
08:34 16.3 °F 10.9 °F 30.33 in SSW 1 mph 4 mph 79% 0.00 in 9 W/m2
08:39 16.4 °F 11 °F 30.33 in WSW 1 mph 3.6 mph 79% 0.00 in 11 W/m2
08:44 17.1 °F 11.5 °F 30.34 in South 0.4 mph 2.7 mph 78.2% 0.00 in 12 W/m2
08:49 17.3 °F 11.5 °F 30.34 in South 0.9 mph 2.9 mph 77.7% 0.00 in 15 W/m2
08:54 17.2 °F 11.6 °F 30.34 in SSW 1.4 mph 3.8 mph 78% 0.00 in 15 W/m2
08:59 16.6 °F 11.1 °F 30.34 in SSW 1.3 mph 4 mph 78.2% 0.00 in 18 W/m2
09:04 17 °F 11.3 °F 30.33 in SSW 1.5 mph 5.6 mph 77.7% 0.00 in 23 W/m2
09:09 16.8 °F 11 °F 30.35 in WSW 2.3 mph 6.9 mph 77.5% 0.00 in 28 W/m2
09:14 17.4 °F 11.1 °F 30.34 in SSW 1.5 mph 5.1 mph 75.9% 0.00 in 32 W/m2
09:19 18.3 °F 11.5 °F 30.34 in South 1.6 mph 4.3 mph 74.2% 0.00 in 38 W/m2
09:24 17.4 °F 10.8 °F 30.35 in SSW 2.6 mph 4.7 mph 75.1% 0.00 in 45 W/m2
09:29 17.2 °F 10.8 °F 30.35 in South 2.8 mph 5.4 mph 75% 0.00 in 45 W/m2
09:34 17.7 °F 10.7 °F 30.35 in SW 1.9 mph 4.7 mph 73.6% 0.00 in 55 W/m2
09:39 18.1 °F 10.9 °F 30.35 in SSW 2.2 mph 5.1 mph 73% 0.00 in 60 W/m2
09:44 18.5 °F 10.9 °F 30.35 in SW 1.4 mph 6.3 mph 72% 0.00 in 60 W/m2
09:49 18.7 °F 10.7 °F 30.35 in West 2.5 mph 5.6 mph 70.4% 0.00 in 57 W/m2
09:54 18.6 °F 10.5 °F 30.36 in West 2.4 mph 8.9 mph 70.2% 0.00 in 64 W/m2
09:59 18.3 °F 10.2 °F 30.36 in WNW 2.3 mph 8.9 mph 69.9% 0.00 in 62 W/m2
10:04 19.5 °F 11 °F 30.36 in South 2.4 mph 4.5 mph 68.9% 0.00 in 53 W/m2
10:09 19.3 °F 10.8 °F 30.36 in SW 2.3 mph 5.4 mph 68.8% 0.00 in 53 W/m2
10:14 19.2 °F 10.7 °F 30.36 in SSW 2.9 mph 6.5 mph 68.9% 0.00 in 53 W/m2
10:19 19.5 °F 10.6 °F 30.36 in South 2 mph 9.2 mph 67.7% 0.00 in 69 W/m2
10:24 19.5 °F 10.1 °F 30.36 in NW 1.9 mph 5.1 mph 66.4% 0.00 in 56 W/m2
10:29 19.3 °F 10.3 °F 30.36 in West 2.7 mph 7.4 mph 67.3% 0.00 in 48 W/m2
10:34 19 °F 9.7 °F 30.37 in WSW 3.5 mph 11.4 mph 66.8% 0.00 in 46 W/m2
10:39 19.6 °F 10 °F 30.37 in West 2.2 mph 8.5 mph 65.7% 0.00 in 69 W/m2
10:44 20.8 °F 10.5 °F 30.36 in South 1.8 mph 6.5 mph 64.1% 0.00 in 65 W/m2
10:49 20.6 °F 10.2 °F 30.37 in South 2.7 mph 5.8 mph 63.6% 0.00 in 78 W/m2
10:54 20.9 °F 9.6 °F 30.36 in WSW 3.2 mph 10.7 mph 61.4% 0.00 in 75 W/m2
10:59 20.7 °F 9.6 °F 30.37 in SSW 2.2 mph 10.7 mph 61.7% 0.00 in 75 W/m2
11:04 20.6 °F 9.6 °F 30.37 in SW 3 mph 9.4 mph 61.7% 0.00 in 66 W/m2
11:09 19.8 °F 9 °F 30.37 in WSW 1.9 mph 8.9 mph 62.4% 0.00 in 86 W/m2
11:14 20.1 °F 8.6 °F 30.37 in SSW 2.9 mph 6 mph 60.6% 0.00 in 72 W/m2
11:19 20.6 °F 8.6 °F 30.37 in SW 3.2 mph 8.9 mph 59.4% 0.00 in 97 W/m2
11:24 20.1 °F 8.1 °F 30.37 in SSW 2.4 mph 8.9 mph 59.2% 0.00 in 103 W/m2
11:29 20.3 °F 8.7 °F 30.37 in SSW 2.8 mph 8.9 mph 60.1% 0.00 in 92 W/m2
11:34 19.7 °F 7.8 °F 30.37 in SW 2.8 mph 8.7 mph 59.3% 0.00 in 84 W/m2
11:39 20.5 °F 8 °F 30.37 in South 2.9 mph 6.7 mph 57.8% 0.00 in 95 W/m2
11:44 19.6 °F 7.5 °F 30.37 in WSW 2.8 mph 9.6 mph 58.8% 0.00 in 51 W/m2
11:49 19.5 °F 7.2 °F 30.37 in WSW 3.1 mph 8.7 mph 58.3% 0.00 in 50 W/m2
11:54 18.8 °F 6.2 °F 30.37 in SW 2.8 mph 8.7 mph 57.3% 0.00 in 42 W/m2
11:59 18.9 °F 6.1 °F 30.36 in SSW 1.8 mph 7.2 mph 56.9% 0.00 in 48 W/m2
12:04 19.2 °F 6.5 °F 30.37 in West 2 mph 8.7 mph 57.1% 0.00 in 49 W/m2
12:09 19.9 °F 7.3 °F 30.37 in NNE 1.9 mph 4.5 mph 57.5% 0.00 in 60 W/m2
12:14 19.6 °F 6.6 °F 30.36 in SW 3.1 mph 8.9 mph 56.6% 0.00 in 69 W/m2
12:19 19.2 °F 7 °F 30.36 in SSW 2.9 mph 6 mph 58.5% 0.00 in 46 W/m2
12:24 18.6 °F 6.7 °F 30.36 in WNW 1.9 mph 6 mph 59.1% 0.00 in 42 W/m2
12:29 19.9 °F 7.7 °F 30.36 in SSW 1 mph 3.4 mph 58.3% 0.00 in 42 W/m2
12:34 19.2 °F 6.7 °F 30.36 in SSW 3.6 mph 9.2 mph 57.7% 0.00 in 49 W/m2
12:39 18.3 °F 6.6 °F 30.36 in SW 3.5 mph 10.1 mph 59.5% 0.00 in 43 W/m2
12:44 18.7 °F 6.8 °F 30.36 in SSE 1.6 mph 9.8 mph 58.9% 0.00 in 53 W/m2
12:49 19.4 °F 6.9 °F 30.36 in WNW 1.6 mph 7.2 mph 57.6% 0.00 in 38 W/m2
12:54 19.4 °F 7.1 °F 30.36 in ENE 1 mph 4.9 mph 58.3% 0.00 in 38 W/m2
12:59 20.2 °F 7.5 °F 30.36 in North 1.6 mph 4.3 mph 57.3% 0.00 in 43 W/m2
13:04 19 °F 6.5 °F 30.35 in SW 2.3 mph 5.1 mph 57.5% 0.00 in 42 W/m2
13:09 18.9 °F 7.1 °F 30.35 in SSW 2.7 mph 6.7 mph 59.1% 0.00 in 38 W/m2
13:14 18.7 °F 7.1 °F 30.35 in WNW 2.1 mph 6.7 mph 59.7% 0.00 in 34 W/m2
13:19 18.8 °F 7 °F 30.35 in SW 2 mph 6 mph 59.1% 0.00 in 35 W/m2
13:24 18.3 °F 6.8 °F 30.35 in WSW 2.5 mph 8.9 mph 60% 0.00 in 34 W/m2
13:29 19.1 °F 8 °F 30.35 in NNW 1.9 mph 8.9 mph 61.2% 0.00 in 33 W/m2
13:34 18.5 °F 7.7 °F 30.35 in West 2.8 mph 9.8 mph 62% 0.00 in 32 W/m2
13:39 18.5 °F 7.9 °F 30.35 in ENE 2.4 mph 10.3 mph 62.5% 0.00 in 32 W/m2
13:44 19 °F 8 °F 30.35 in North 1.7 mph 10.3 mph 61.4% 0.00 in 33 W/m2
13:49 19.3 °F 7.6 °F 30.35 in ENE 1.6 mph 4.7 mph 59.9% 0.00 in 32 W/m2
13:54 19.2 °F 7 °F 30.35 in South 1.8 mph 5.6 mph 58.5% 0.00 in 35 W/m2
13:59 19.3 °F 6.6 °F 30.35 in SW 1.6 mph 6.7 mph 57.4% 0.00 in 33 W/m2
14:04 18.9 °F 6.9 °F 30.35 in WNW 1.2 mph 6.7 mph 58.7% 0.00 in 24 W/m2
14:09 18.7 °F 6.7 °F 30.35 in WSW 1.3 mph 5.4 mph 58.7% 0.00 in 26 W/m2
14:14 19.1 °F 6.9 °F 30.34 in SSW 1.8 mph 5.1 mph 58.3% 0.00 in 28 W/m2
14:19 18.6 °F 6.6 °F 30.35 in West 2 mph 6 mph 58.9% 0.00 in 29 W/m2
14:24 19 °F 7.4 °F 30.34 in South 2.4 mph 6.5 mph 59.9% 0.00 in 28 W/m2
14:29 18.3 °F 7.1 °F 30.34 in SSW 2.7 mph 7.2 mph 60.9% 0.00 in 28 W/m2
14:34 18.3 °F 6.7 °F 30.34 in SW 1.8 mph 6.9 mph 59.6% 0.00 in 31 W/m2
14:39 18.3 °F 6.4 °F 30.34 in SW 2.5 mph 6.9 mph 58.8% 0.00 in 29 W/m2
14:44 18.8 °F 6.4 °F 30.35 in NW 2.1 mph 5.6 mph 58% 0.00 in 29 W/m2
14:49 18.4 °F 6.2 °F 30.35 in SSW 2.9 mph 5.6 mph 58.2% 0.00 in 27 W/m2
14:54 17.8 °F 6.1 °F 30.35 in SSW 2.2 mph 5.6 mph 59.5% 0.00 in 23 W/m2
14:59 18 °F 6.3 °F 30.35 in SW 2.5 mph 6.3 mph 59.4% 0.00 in 21 W/m2
15:04 18.1 °F 6.7 °F 30.35 in SSW 2.3 mph 5.6 mph 60.4% 0.00 in 24 W/m2
15:09 18.1 °F 7.3 °F 30.35 in SW 2.5 mph 9.2 mph 62% 0.00 in 26 W/m2
15:14 18 °F 7.5 °F 30.36 in SW 2.2 mph 5.4 mph 62.8% 0.00 in 22 W/m2
15:19 17.9 °F 7.3 °F 30.36 in WSW 1.6 mph 5.1 mph 62.8% 0.00 in 18 W/m2
15:24 17.8 °F 7.8 °F 30.36 in SSW 2.1 mph 4.5 mph 64.4% 0.00 in 20 W/m2
15:29 17.8 °F 7.4 °F 30.36 in WNW 1.7 mph 5.8 mph 63.4% 0.00 in 22 W/m2
15:34 18.2 °F 6.6 °F 30.36 in NNE 2.6 mph 7.2 mph 59.6% 0.00 in 21 W/m2
15:39 18.3 °F 6 °F 30.36 in SSW 1.3 mph 7.2 mph 57.9% 0.00 in 23 W/m2
15:44 18.8 °F 6 °F 30.36 in SSW 2.1 mph 6.3 mph 57.1% 0.00 in 20 W/m2
15:49 18.6 °F 5.6 °F 30.36 in SSW 1.4 mph 6.3 mph 56.3% 0.00 in 24 W/m2
15:54 19 °F 5.6 °F 30.36 in WNW 2.1 mph 6.7 mph 55.3% 0.00 in 51 W/m2
15:59 18.4 °F 5.4 °F 30.36 in West 2.6 mph 6 mph 56.1% 0.00 in 24 W/m2
16:04 18.1 °F 5.1 °F 30.36 in SSW 2.7 mph 7.2 mph 56.1% 0.00 in 60 W/m2
16:09 18.9 °F 5.1 °F 30.36 in SW 2.4 mph 7.2 mph 54.3% 0.00 in 59 W/m2
16:14 19 °F 4.7 °F 30.36 in South 3.2 mph 6.7 mph 53.1% 0.00 in 48 W/m2
16:19 19.1 °F 5 °F 30.36 in South 3.5 mph 6.3 mph 53.6% 0.00 in 50 W/m2
16:24 19.2 °F 4.7 °F 30.36 in South 3 mph 5.6 mph 52.6% 0.00 in 51 W/m2
16:29 19.8 °F 5.2 °F 30.36 in SSW 1.9 mph 5.6 mph 52.4% 0.00 in 51 W/m2
16:34 19.8 °F 5.4 °F 30.37 in WSW 1.7 mph 4.5 mph 53% 0.00 in 43 W/m2
16:39 19.8 °F 4.7 °F 30.37 in SSW 2.2 mph 6 mph 51.2% 0.00 in 38 W/m2
16:44 18.6 °F 4.5 °F 30.37 in SSW 2.1 mph 6.9 mph 53.6% 0.00 in 23 W/m2
16:49 18 °F 4.6 °F 30.37 in SSW 2.2 mph 4.7 mph 55.2% 0.00 in 11 W/m2
16:54 17.9 °F 4.5 °F 30.37 in SSW 1.4 mph 4.7 mph 55.3% 0.00 in 9 W/m2
16:59 17.9 °F 4.6 °F 30.37 in SSW 1.7 mph 4.3 mph 55.3% 0.00 in 6 W/m2
17:04 17.7 °F 4.7 °F 30.38 in South 0.8 mph 4 mph 56.3% 0.00 in 5 W/m2
17:09 17.6 °F 4.5 °F 30.38 in SSW 1.2 mph 3.8 mph 55.8% 0.00 in 4 W/m2
17:14 17.3 °F 4.6 °F 30.37 in SSW 1.6 mph 4.3 mph 56.6% 0.00 in 2 W/m2
17:19 17.3 °F 4.7 °F 30.38 in South 0.2 mph 4.3 mph 56.8% 0.00 in 0 W/m2
17:24 17.2 °F 4.7 °F 30.37 in South 0.6 mph 2.9 mph 57.3% 0.00 in 0 W/m2
17:29 17.1 °F 5.3 °F 30.38 in SE 0.4 mph 2.9 mph 59.4% 0.00 in 0 W/m2
17:34 17.4 °F 5.6 °F 30.37 in Calm   1.3 mph 59.2% 0.00 in 0 W/m2
17:39 17.2 °F 4.9 °F 30.38 in East 0.5 mph 2 mph 58% 0.00 in 0 W/m2
17:44 17 °F 5.1 °F 30.38 in East 0.2 mph 1.8 mph 58.9% 0.00 in 0 W/m2
17:49 16.6 °F 5 °F 30.37 in Calm   1.6 mph 59.5% 0.00 in 0 W/m2
Monroeville, Pennsylvania, USA
Compliments of Weather Underground - 4 mb